sensor_id;sensor_type;location;lat;lon;timestamp;pressure;altitude;pressure_sealevel;temperature;humidity
8585;BME280;7180;52.742;11.420;2023-07-22T00:00:39;100600.97;;;13.65;100.00
8585;BME280;7180;52.742;11.420;2023-07-22T00:03:04;100596.63;;;13.64;100.00
8585;BME280;7180;52.742;11.420;2023-07-22T00:05:29;100603.59;;;13.65;100.00
8585;BME280;7180;52.742;11.420;2023-07-22T00:07:54;100596.81;;;13.73;100.00
8585;BME280;7180;52.742;11.420;2023-07-22T00:10:20;100588.50;;;13.54;100.00
8585;BME280;7180;52.742;11.420;2023-07-22T00:12:45;100604.47;;;13.40;100.00
8585;BME280;7180;52.742;11.420;2023-07-22T00:15:10;100606.81;;;13.44;100.00
8585;BME280;7180;52.742;11.420;2023-07-22T00:17:40;100608.19;;;13.37;100.00
8585;BME280;7180;52.742;11.420;2023-07-22T00:20:07;100611.00;;;13.34;100.00
8585;BME280;7180;52.742;11.420;2023-07-22T00:22:36;100612.59;;;13.49;100.00
8585;BME280;7180;52.742;11.420;2023-07-22T00:25:02;100615.66;;;13.43;100.00
8585;BME280;7180;52.742;11.420;2023-07-22T00:27:27;100618.09;;;13.46;100.00
8585;BME280;7180;52.742;11.420;2023-07-22T00:29:52;100613.75;;;13.45;100.00
8585;BME280;7180;52.742;11.420;2023-07-22T00:32:17;100605.53;;;13.37;100.00
8585;BME280;7180;52.742;11.420;2023-07-22T00:34:43;100615.47;;;13.34;100.00
8585;BME280;7180;52.742;11.420;2023-07-22T00:37:08;100618.00;;;13.35;100.00
8585;BME280;7180;52.742;11.420;2023-07-22T00:39:33;100612.72;;;13.35;100.00
8585;BME280;7180;52.742;11.420;2023-07-22T00:41:59;100613.78;;;13.33;100.00
8585;BME280;7180;52.742;11.420;2023-07-22T00:44:25;100604.47;;;13.27;100.00
8585;BME280;7180;52.742;11.420;2023-07-22T00:46:53;100612.41;;;13.27;100.00
8585;BME280;7180;52.742;11.420;2023-07-22T00:49:20;100608.72;;;13.17;100.00
8585;BME280;7180;52.742;11.420;2023-07-22T00:51:46;100615.66;;;13.06;100.00
8585;BME280;7180;52.742;11.420;2023-07-22T00:54:11;100615.31;;;12.98;100.00
8585;BME280;7180;52.742;11.420;2023-07-22T00:56:36;100607.16;;;12.88;100.00
8585;BME280;7180;52.742;11.420;2023-07-22T00:59:02;100616.03;;;12.87;100.00
8585;BME280;7180;52.742;11.420;2023-07-22T01:01:28;100615.06;;;12.76;100.00
8585;BME280;7180;52.742;11.420;2023-07-22T01:03:53;100619.34;;;12.64;100.00
8585;BME280;7180;52.742;11.420;2023-07-22T01:06:19;100607.75;;;12.54;100.00
8585;BME280;7180;52.742;11.420;2023-07-22T01:08:45;100615.53;;;12.56;100.00
8585;BME280;7180;52.742;11.420;2023-07-22T01:11:11;100620.56;;;12.46;100.00
8585;BME280;7180;52.742;11.420;2023-07-22T01:13:38;100621.00;;;12.40;100.00
8585;BME280;7180;52.742;11.420;2023-07-22T01:16:05;100616.09;;;12.34;100.00
8585;BME280;7180;52.742;11.420;2023-07-22T01:18:30;100626.66;;;12.34;100.00
8585;BME280;7180;52.742;11.420;2023-07-22T01:20:56;100625.38;;;12.27;100.00
8585;BME280;7180;52.742;11.420;2023-07-22T01:23:21;100624.50;;;12.26;100.00
8585;BME280;7180;52.742;11.420;2023-07-22T01:25:47;100626.22;;;12.27;100.00
8585;BME280;7180;52.742;11.420;2023-07-22T01:28:12;100620.38;;;12.22;100.00
8585;BME280;7180;52.742;11.420;2023-07-22T01:30:38;100627.53;;;12.20;100.00
8585;BME280;7180;52.742;11.420;2023-07-22T01:33:03;100625.22;;;12.16;100.00
8585;BME280;7180;52.742;11.420;2023-07-22T01:35:28;100628.03;;;12.13;100.00
8585;BME280;7180;52.742;11.420;2023-07-22T01:37:53;100630.84;;;12.10;100.00
8585;BME280;7180;52.742;11.420;2023-07-22T01:40:19;100628.63;;;12.04;100.00
8585;BME280;7180;52.742;11.420;2023-07-22T01:42:44;100628.00;;;12.00;100.00
8585;BME280;7180;52.742;11.420;2023-07-22T01:45:10;100629.66;;;12.01;100.00
8585;BME280;7180;52.742;11.420;2023-07-22T01:47:37;100630.63;;;12.00;100.00
8585;BME280;7180;52.742;11.420;2023-07-22T01:50:04;100636.16;;;11.96;100.00
8585;BME280;7180;52.742;11.420;2023-07-22T01:52:29;100632.94;;;12.05;100.00
8585;BME280;7180;52.742;11.420;2023-07-22T01:54:55;100632.41;;;12.00;100.00
8585;BME280;7180;52.742;11.420;2023-07-22T01:57:20;100621.97;;;11.98;100.00
8585;BME280;7180;52.742;11.420;2023-07-22T01:59:45;100627.41;;;11.95;100.00
8585;BME280;7180;52.742;11.420;2023-07-22T02:02:11;100634.94;;;12.01;100.00
8585;BME280;7180;52.742;11.420;2023-07-22T02:04:36;100630.09;;;12.08;100.00
8585;BME280;7180;52.742;11.420;2023-07-22T02:07:01;100631.50;;;12.13;100.00
8585;BME280;7180;52.742;11.420;2023-07-22T02:09:26;100638.00;;;12.22;100.00
8585;BME280;7180;52.742;11.420;2023-07-22T02:11:52;100627.03;;;12.28;100.00
8585;BME280;7180;52.742;11.420;2023-07-22T02:14:18;100629.81;;;12.39;100.00
8585;BME280;7180;52.742;11.420;2023-07-22T02:16:43;100630.03;;;12.36;100.00
8585;BME280;7180;52.742;11.420;2023-07-22T02:19:08;100627.16;;;12.26;100.00
8585;BME280;7180;52.742;11.420;2023-07-22T02:21:34;100639.28;;;12.29;100.00
8585;BME280;7180;52.742;11.420;2023-07-22T02:23:59;100635.38;;;12.22;100.00
8585;BME280;7180;52.742;11.420;2023-07-22T02:26:24;100631.63;;;12.12;100.00
8585;BME280;7180;52.742;11.420;2023-07-22T02:28:50;100640.66;;;12.08;100.00
8585;BME280;7180;52.742;11.420;2023-07-22T02:31:15;100639.19;;;12.04;100.00
8585;BME280;7180;52.742;11.420;2023-07-22T02:33:40;100635.13;;;11.98;100.00
8585;BME280;7180;52.742;11.420;2023-07-22T02:36:06;100638.16;;;11.92;100.00
8585;BME280;7180;52.742;11.420;2023-07-22T02:38:31;100641.09;;;11.88;100.00
8585;BME280;7180;52.742;11.420;2023-07-22T02:41:03;100629.81;;;11.86;100.00
8585;BME280;7180;52.742;11.420;2023-07-22T02:43:31;100644.00;;;11.83;100.00
8585;BME280;7180;52.742;11.420;2023-07-22T02:45:56;100642.59;;;11.78;100.00
8585;BME280;7180;52.742;11.420;2023-07-22T02:48:22;100640.06;;;11.76;100.00
8585;BME280;7180;52.742;11.420;2023-07-22T02:50:48;100644.47;;;11.76;100.00
8585;BME280;7180;52.742;11.420;2023-07-22T02:53:13;100653.97;;;11.78;100.00
8585;BME280;7180;52.742;11.420;2023-07-22T02:55:38;100647.50;;;11.84;100.00
8585;BME280;7180;52.742;11.420;2023-07-22T02:58:03;100651.63;;;11.74;100.00
8585;BME280;7180;52.742;11.420;2023-07-22T03:00:29;100658.28;;;11.79;100.00
8585;BME280;7180;52.742;11.420;2023-07-22T03:02:56;100658.41;;;11.78;100.00
8585;BME280;7180;52.742;11.420;2023-07-22T03:05:29;100669.31;;;11.72;100.00
8585;BME280;7180;52.742;11.420;2023-07-22T03:07:54;100670.47;;;11.68;100.00
8585;BME280;7180;52.742;11.420;2023-07-22T03:10:19;100667.41;;;11.74;100.00
8585;BME280;7180;52.742;11.420;2023-07-22T03:12:45;100663.38;;;11.68;100.00
8585;BME280;7180;52.742;11.420;2023-07-22T03:15:10;100669.31;;;11.72;100.00
8585;BME280;7180;52.742;11.420;2023-07-22T03:17:38;100675.25;;;11.75;100.00
8585;BME280;7180;52.742;11.420;2023-07-22T03:20:04;100672.97;;;11.83;100.00
8585;BME280;7180;52.742;11.420;2023-07-22T03:22:42;100668.19;;;11.76;100.00
8585;BME280;7180;52.742;11.420;2023-07-22T03:25:09;100675.72;;;11.82;100.00
8585;BME280;7180;52.742;11.420;2023-07-22T03:27:35;100675.16;;;11.77;100.00
8585;BME280;7180;52.742;11.420;2023-07-22T03:30:02;100679.84;;;11.72;100.00
8585;BME280;7180;52.742;11.420;2023-07-22T03:32:28;100674.78;;;11.69;100.00
8585;BME280;7180;52.742;11.420;2023-07-22T03:34:53;100679.84;;;11.72;100.00
8585;BME280;7180;52.742;11.420;2023-07-22T03:37:18;100683.88;;;11.77;100.00
8585;BME280;7180;52.742;11.420;2023-07-22T03:39:45;100689.34;;;11.74;100.00
8585;BME280;7180;52.742;11.420;2023-07-22T03:42:10;100689.00;;;11.80;100.00
8585;BME280;7180;52.742;11.420;2023-07-22T03:44:36;100688.78;;;11.83;100.00
8585;BME280;7180;52.742;11.420;2023-07-22T03:47:01;100685.09;;;12.00;100.00
8585;BME280;7180;52.742;11.420;2023-07-22T03:49:26;100675.13;;;11.91;100.00
8585;BME280;7180;52.742;11.420;2023-07-22T03:51:52;100669.13;;;11.89;100.00
8585;BME280;7180;52.742;11.420;2023-07-22T03:54:17;100670.16;;;12.00;100.00
8585;BME280;7180;52.742;11.420;2023-07-22T03:56:42;100673.81;;;11.98;100.00
8585;BME280;7180;52.742;11.420;2023-07-22T03:59:07;100674.56;;;12.00;100.00
8585;BME280;7180;52.742;11.420;2023-07-22T04:01:33;100675.50;;;11.99;100.00
8585;BME280;7180;52.742;11.420;2023-07-22T04:03:58;100677.94;;;12.02;100.00
8585;BME280;7180;52.742;11.420;2023-07-22T04:06:23;100676.53;;;12.10;100.00
8585;BME280;7180;52.742;11.420;2023-07-22T04:08:48;100681.50;;;12.15;100.00
8585;BME280;7180;52.742;11.420;2023-07-22T04:11:14;100678.47;;;12.47;100.00
8585;BME280;7180;52.742;11.420;2023-07-22T04:13:39;100680.19;;;12.75;100.00
8585;BME280;7180;52.742;11.420;2023-07-22T04:16:05;100675.97;;;12.73;100.00
8585;BME280;7180;52.742;11.420;2023-07-22T04:18:30;100680.56;;;12.69;100.00
8585;BME280;7180;52.742;11.420;2023-07-22T04:20:59;100673.06;;;12.63;100.00
8585;BME280;7180;52.742;11.420;2023-07-22T04:23:25;100676.41;;;12.79;100.00
8585;BME280;7180;52.742;11.420;2023-07-22T04:25:51;100673.28;;;12.99;100.00
8585;BME280;7180;52.742;11.420;2023-07-22T04:28:16;100671.22;;;13.80;100.00
8585;BME280;7180;52.742;11.420;2023-07-22T04:30:41;100662.25;;;14.54;100.00
8585;BME280;7180;52.742;11.420;2023-07-22T04:33:07;100636.22;;;15.07;100.00
8585;BME280;7180;52.742;11.420;2023-07-22T04:35:40;100618.41;;;15.31;100.00
8585;BME280;7180;52.742;11.420;2023-07-22T04:38:06;100589.19;;;15.54;100.00
8585;BME280;7180;52.742;11.420;2023-07-22T04:40:31;100566.91;;;16.22;100.00
8585;BME280;7180;52.742;11.420;2023-07-22T04:42:57;100509.34;;;16.33;100.00
8585;BME280;7180;52.742;11.420;2023-07-22T04:45:23;100472.22;;;17.44;100.00
8585;BME280;7180;52.742;11.420;2023-07-22T04:47:51;100349.00;;;16.87;94.45
8585;BME280;7180;52.742;11.420;2023-07-22T04:50:17;100367.06;;;17.51;92.37
8585;BME280;7180;52.742;11.420;2023-07-22T04:52:45;100326.47;;;17.88;89.57
8585;BME280;7180;52.742;11.420;2023-07-22T04:55:11;100242.44;;;17.95;86.55
8585;BME280;7180;52.742;11.420;2023-07-22T04:57:38;100316.56;;;18.36;85.86
8585;BME280;7180;52.742;11.420;2023-07-22T05:00:04;100267.66;;;18.74;83.77
8585;BME280;7180;52.742;11.420;2023-07-22T05:02:30;100367.97;;;18.83;84.99
8585;BME280;7180;52.742;11.420;2023-07-22T05:04:56;100215.50;;;18.89;81.87
8585;BME280;7180;52.742;11.420;2023-07-22T05:07:22;100257.53;;;18.95;81.32
8585;BME280;7180;52.742;11.420;2023-07-22T05:09:48;100294.47;;;18.90;82.00
8585;BME280;7180;52.742;11.420;2023-07-22T05:12:13;100215.00;;;20.15;78.57
8585;BME280;7180;52.742;11.420;2023-07-22T05:14:38;100255.44;;;20.20;78.41
8585;BME280;7180;52.742;11.420;2023-07-22T05:17:04;100189.94;;;20.08;76.78
8585;BME280;7180;52.742;11.420;2023-07-22T05:19:29;100213.53;;;20.62;76.01
8585;BME280;7180;52.742;11.420;2023-07-22T05:21:54;100149.81;;;20.83;74.26
8585;BME280;7180;52.742;11.420;2023-07-22T05:24:20;100180.31;;;20.48;74.70
8585;BME280;7180;52.742;11.420;2023-07-22T05:26:46;100060.97;;;20.73;72.13
8585;BME280;7180;52.742;11.420;2023-07-22T05:29:11;100092.69;;;20.76;72.48
8585;BME280;7180;52.742;11.420;2023-07-22T05:31:37;100017.88;;;20.28;71.68
8585;BME280;7180;52.742;11.420;2023-07-22T05:34:02;100088.53;;;20.74;71.90
8585;BME280;7180;52.742;11.420;2023-07-22T05:36:29;100117.41;;;20.94;71.60
8585;BME280;7180;52.742;11.420;2023-07-22T05:38:54;100093.03;;;20.65;71.63
8585;BME280;7180;52.742;11.420;2023-07-22T05:41:19;100051.47;;;21.65;69.39
8585;BME280;7180;52.742;11.420;2023-07-22T05:43:45;99991.00;;;20.86;69.60
8585;BME280;7180;52.742;11.420;2023-07-22T05:46:10;100142.16;;;21.12;71.24
8585;BME280;7180;52.742;11.420;2023-07-22T05:48:35;99976.06;;;21.23;68.66
8585;BME280;7180;52.742;11.420;2023-07-22T05:51:01;100035.22;;;21.12;69.02
8585;BME280;7180;52.742;11.420;2023-07-22T05:53:26;100034.44;;;21.58;68.62
8585;BME280;7180;52.742;11.420;2023-07-22T05:55:51;99965.28;;;21.47;67.44
8585;BME280;7180;52.742;11.420;2023-07-22T05:58:17;100064.53;;;21.60;68.24
8585;BME280;7180;52.742;11.420;2023-07-22T06:00:44;99961.28;;;21.82;67.05
8585;BME280;7180;52.742;11.420;2023-07-22T06:03:09;100013.03;;;20.96;68.31
8585;BME280;7180;52.742;11.420;2023-07-22T06:05:35;100031.34;;;21.86;67.01
8585;BME280;7180;52.742;11.420;2023-07-22T06:08:00;100030.75;;;22.29;66.29
8585;BME280;7180;52.742;11.420;2023-07-22T06:10:25;100031.41;;;21.70;67.10
8585;BME280;7180;52.742;11.420;2023-07-22T06:12:50;99969.47;;;22.11;65.42
8585;BME280;7180;52.742;11.420;2023-07-22T06:15:16;99969.00;;;22.08;65.07
8585;BME280;7180;52.742;11.420;2023-07-22T06:17:41;99988.19;;;22.34;64.96
8585;BME280;7180;52.742;11.420;2023-07-22T06:20:08;99909.44;;;22.06;64.23
8585;BME280;7180;52.742;11.420;2023-07-22T06:22:33;99940.94;;;21.65;64.57
8585;BME280;7180;52.742;11.420;2023-07-22T06:24:58;100046.56;;;22.16;65.87
8585;BME280;7180;52.742;11.420;2023-07-22T06:27:24;99971.81;;;22.74;63.65
8585;BME280;7180;52.742;11.420;2023-07-22T06:29:49;99927.22;;;21.99;63.77
8585;BME280;7180;52.742;11.420;2023-07-22T06:32:14;100023.22;;;22.02;64.92
8585;BME280;7180;52.742;11.420;2023-07-22T06:34:39;100091.03;;;21.31;66.60
8585;BME280;7180;52.742;11.420;2023-07-22T06:37:05;100120.50;;;22.55;65.16
8585;BME280;7180;52.742;11.420;2023-07-22T06:39:30;100100.78;;;22.48;64.29
8585;BME280;7180;52.742;11.420;2023-07-22T06:41:55;100044.19;;;22.21;64.03
8585;BME280;7180;52.742;11.420;2023-07-22T06:44:21;100067.44;;;22.51;63.70
8585;BME280;7180;52.742;11.420;2023-07-22T06:46:46;99964.97;;;22.72;61.81
8585;BME280;7180;52.742;11.420;2023-07-22T06:49:11;99971.19;;;22.04;62.66
8585;BME280;7180;52.742;11.420;2023-07-22T06:51:37;100059.81;;;22.40;63.39
8585;BME280;7180;52.742;11.420;2023-07-22T06:54:03;100073.78;;;21.97;64.07
8585;BME280;7180;52.742;11.420;2023-07-22T06:56:28;100137.31;;;20.92;66.68
8585;BME280;7180;52.742;11.420;2023-07-22T06:58:53;100161.47;;;20.58;66.88
8585;BME280;7180;52.742;11.420;2023-07-22T07:01:18;100184.88;;;20.96;66.36
8585;BME280;7180;52.742;11.420;2023-07-22T07:03:44;100206.69;;;21.33;66.23
8585;BME280;7180;52.742;11.420;2023-07-22T07:06:09;100154.16;;;21.48;65.41
8585;BME280;7180;52.742;11.420;2023-07-22T07:08:34;100164.38;;;22.24;64.10
8585;BME280;7180;52.742;11.420;2023-07-22T07:11:00;100084.56;;;21.73;63.60
8585;BME280;7180;52.742;11.420;2023-07-22T07:13:28;100051.53;;;21.41;63.56
8585;BME280;7180;52.742;11.420;2023-07-22T07:15:54;100048.38;;;21.46;63.13
8585;BME280;7180;52.742;11.420;2023-07-22T07:18:20;100046.97;;;21.58;62.86
8585;BME280;7180;52.742;11.420;2023-07-22T07:20:45;100083.22;;;21.77;63.05
8585;BME280;7180;52.742;11.420;2023-07-22T07:23:12;100106.41;;;21.21;64.36
8585;BME280;7180;52.742;11.420;2023-07-22T07:25:38;100112.41;;;20.75;64.81
8585;BME280;7180;52.742;11.420;2023-07-22T07:28:03;100171.47;;;20.56;65.86
8585;BME280;7180;52.742;11.420;2023-07-22T07:30:29;100177.25;;;21.09;64.97
8585;BME280;7180;52.742;11.420;2023-07-22T07:32:54;100155.53;;;21.04;64.76
8585;BME280;7180;52.742;11.420;2023-07-22T07:35:19;100203.16;;;21.49;64.77
8585;BME280;7180;52.742;11.420;2023-07-22T07:37:45;100157.28;;;21.76;63.85
8585;BME280;7180;52.742;11.420;2023-07-22T07:40:11;100096.69;;;22.30;61.90
8585;BME280;7180;52.742;11.420;2023-07-22T07:42:36;99989.78;;;23.17;59.05
8585;BME280;7180;52.742;11.420;2023-07-22T07:45:02;99992.88;;;22.77;60.03
8585;BME280;7180;52.742;11.420;2023-07-22T07:47:27;99977.66;;;22.55;59.69
8585;BME280;7180;52.742;11.420;2023-07-22T07:49:52;100017.91;;;21.94;61.24
8585;BME280;7180;52.742;11.420;2023-07-22T07:52:17;100065.84;;;21.64;62.18
8585;BME280;7180;52.742;11.420;2023-07-22T07:54:43;100077.19;;;21.83;61.99
8585;BME280;7180;52.742;11.420;2023-07-22T07:57:08;100025.75;;;21.56;60.86
8585;BME280;7180;52.742;11.420;2023-07-22T07:59:34;100047.94;;;21.26;62.10
8585;BME280;7180;52.742;11.420;2023-07-22T08:01:59;100108.25;;;20.89;63.44
8585;BME280;7180;52.742;11.420;2023-07-22T08:04:24;100132.66;;;20.28;64.63
8585;BME280;7180;52.742;11.420;2023-07-22T08:06:50;100189.84;;;20.67;64.60
8585;BME280;7180;52.742;11.420;2023-07-22T08:09:15;100175.78;;;20.41;64.50
8585;BME280;7180;52.742;11.420;2023-07-22T08:11:44;100188.44;;;20.39;64.89
8585;BME280;7180;52.742;11.420;2023-07-22T08:14:10;100258.78;;;20.63;65.44
8585;BME280;7180;52.742;11.420;2023-07-22T08:16:35;100227.31;;;20.91;64.62
8585;BME280;7180;52.742;11.420;2023-07-22T08:19:00;100185.56;;;20.74;64.35
8585;BME280;7180;52.742;11.420;2023-07-22T08:21:26;100087.31;;;20.44;63.20
8585;BME280;7180;52.742;11.420;2023-07-22T08:23:51;100206.34;;;20.13;65.19
8585;BME280;7180;52.742;11.420;2023-07-22T08:26:16;100156.19;;;20.24;64.31
8585;BME280;7180;52.742;11.420;2023-07-22T08:28:46;100256.72;;;20.16;65.58
8585;BME280;7180;52.742;11.420;2023-07-22T08:31:11;100214.91;;;20.24;64.77
8585;BME280;7180;52.742;11.420;2023-07-22T08:33:37;100228.22;;;20.50;64.76
8585;BME280;7180;52.742;11.420;2023-07-22T08:36:02;100254.06;;;20.49;64.70
8585;BME280;7180;52.742;11.420;2023-07-22T08:38:27;100228.75;;;20.61;64.37
8585;BME280;7180;52.742;11.420;2023-07-22T08:40:53;100144.28;;;20.69;62.60
8585;BME280;7180;52.742;11.420;2023-07-22T08:43:22;100204.00;;;21.01;63.13
8585;BME280;7180;52.742;11.420;2023-07-22T08:45:52;100130.28;;;20.99;62.27
8585;BME280;7180;52.742;11.420;2023-07-22T08:48:17;100102.72;;;20.98;61.62
8585;BME280;7180;52.742;11.420;2023-07-22T08:50:50;100105.84;;;20.45;62.42
8585;BME280;7180;52.742;11.420;2023-07-22T08:53:16;100132.28;;;20.89;61.93
8585;BME280;7180;52.742;11.420;2023-07-22T08:55:44;100056.97;;;20.61;61.77
8585;BME280;7180;52.742;11.420;2023-07-22T08:58:10;100083.84;;;20.84;61.31
8585;BME280;7180;52.742;11.420;2023-07-22T09:00:36;100039.09;;;20.78;60.70
8585;BME280;7180;52.742;11.420;2023-07-22T09:03:02;100054.31;;;21.01;60.71
8585;BME280;7180;52.742;11.420;2023-07-22T09:05:28;100080.19;;;21.01;61.10
8585;BME280;7180;52.742;11.420;2023-07-22T09:07:55;100027.56;;;20.85;60.40
8585;BME280;7180;52.742;11.420;2023-07-22T09:10:22;100139.34;;;21.14;61.58
8585;BME280;7180;52.742;11.420;2023-07-22T09:12:50;100068.31;;;21.11;60.39
8585;BME280;7180;52.742;11.420;2023-07-22T09:15:16;100049.25;;;21.14;59.90
8585;BME280;7180;52.742;11.420;2023-07-22T09:17:41;100069.31;;;21.26;60.34
8585;BME280;7180;52.742;11.420;2023-07-22T09:20:07;100050.72;;;21.41;59.65
8585;BME280;7180;52.742;11.420;2023-07-22T09:22:33;100052.25;;;21.35;60.30
8585;BME280;7180;52.742;11.420;2023-07-22T09:27:40;100060.97;;;21.05;60.28
8585;BME280;7180;52.742;11.420;2023-07-22T09:32:56;100103.22;;;21.97;59.52
8585;BME280;7180;52.742;11.420;2023-07-22T09:35:22;100115.91;;;22.03;59.55
8585;BME280;7180;52.742;11.420;2023-07-22T09:37:48;100080.81;;;21.98;59.36
8585;BME280;7180;52.742;11.420;2023-07-22T09:40:27;100092.00;;;22.01;59.29
8585;BME280;7180;52.742;11.420;2023-07-22T09:42:56;99996.28;;;22.03;58.31
8585;BME280;7180;52.742;11.420;2023-07-22T09:45:24;99961.50;;;22.26;57.47
8585;BME280;7180;52.742;11.420;2023-07-22T09:47:51;99932.44;;;21.92;57.52
8585;BME280;7180;52.742;11.420;2023-07-22T09:50:19;100029.94;;;21.98;58.42
8585;BME280;7180;52.742;11.420;2023-07-22T09:52:53;99994.41;;;21.81;58.37
8585;BME280;7180;52.742;11.420;2023-07-22T09:55:21;99913.84;;;21.37;57.94
8585;BME280;7180;52.742;11.420;2023-07-22T09:57:50;99963.81;;;21.37;57.79
8585;BME280;7180;52.742;11.420;2023-07-22T10:00:16;100028.75;;;21.61;58.74
8585;BME280;7180;52.742;11.420;2023-07-22T10:02:45;99975.91;;;21.63;58.11
8585;BME280;7180;52.742;11.420;2023-07-22T10:05:16;99954.63;;;21.70;57.46
8585;BME280;7180;52.742;11.420;2023-07-22T10:07:56;99949.03;;;21.57;57.61
8585;BME280;7180;52.742;11.420;2023-07-22T10:10:37;99947.78;;;21.67;57.62
8585;BME280;7180;52.742;11.420;2023-07-22T10:13:03;99968.28;;;22.36;56.77
8585;BME280;7180;52.742;11.420;2023-07-22T10:15:30;99899.25;;;22.61;55.70
8585;BME280;7180;52.742;11.420;2023-07-22T10:17:56;99816.91;;;22.55;54.80
8585;BME280;7180;52.742;11.420;2023-07-22T10:20:23;99831.56;;;22.30;54.88
8585;BME280;7180;52.742;11.420;2023-07-22T10:22:48;99817.06;;;22.39;54.85
8585;BME280;7180;52.742;11.420;2023-07-22T10:25:16;99782.44;;;22.37;54.25
8585;BME280;7180;52.742;11.420;2023-07-22T10:27:42;99893.16;;;22.30;56.04
8585;BME280;7180;52.742;11.420;2023-07-22T10:30:09;99892.00;;;22.47;55.48
8585;BME280;7180;52.742;11.420;2023-07-22T10:32:41;99912.53;;;22.54;55.76
8585;BME280;7180;52.742;11.420;2023-07-22T10:35:11;99857.88;;;22.63;54.97
8585;BME280;7180;52.742;11.420;2023-07-22T10:37:38;99786.69;;;22.46;54.11
8585;BME280;7180;52.742;11.420;2023-07-22T10:40:44;99840.13;;;22.11;55.43
8585;BME280;7180;52.742;11.420;2023-07-22T10:43:05;99933.06;;;22.39;56.20
8585;BME280;7180;52.742;11.420;2023-07-22T10:45:33;99852.56;;;21.81;56.43
8585;BME280;7180;52.742;11.420;2023-07-22T10:48:02;99835.84;;;22.02;55.54
8585;BME280;7180;52.742;11.420;2023-07-22T10:50:42;99891.63;;;22.13;55.80
8585;BME280;7180;52.742;11.420;2023-07-22T10:53:13;99845.25;;;21.98;55.37
8585;BME280;7180;52.742;11.420;2023-07-22T11:04:12;99862.78;;;22.60;54.63
8585;BME280;7180;52.742;11.420;2023-07-22T11:06:51;99859.44;;;22.87;54.66
8585;BME280;7180;52.742;11.420;2023-07-22T11:12:16;99851.22;;;22.89;54.37
8585;BME280;7180;52.742;11.420;2023-07-22T11:14:49;99741.53;;;23.08;52.56
8585;BME280;7180;52.742;11.420;2023-07-22T11:17:16;99787.06;;;23.02;53.45
8585;BME280;7180;52.742;11.420;2023-07-22T11:19:42;99800.94;;;22.91;53.74
8585;BME280;7180;52.742;11.420;2023-07-22T11:22:08;99772.19;;;22.70;53.94
8585;BME280;7180;52.742;11.420;2023-07-22T11:24:34;99722.16;;;22.56;53.65
8585;BME280;7180;52.742;11.420;2023-07-22T11:27:02;99782.69;;;22.28;54.65
8585;BME280;7180;52.742;11.420;2023-07-22T11:29:28;99798.13;;;22.11;55.24
8585;BME280;7180;52.742;11.420;2023-07-22T11:31:53;99870.22;;;22.13;55.65
8585;BME280;7180;52.742;11.420;2023-07-22T11:34:23;99890.03;;;22.41;55.80
8585;BME280;7180;52.742;11.420;2023-07-22T11:36:51;99854.78;;;22.52;55.14
8585;BME280;7180;52.742;11.420;2023-07-22T11:39:18;99804.88;;;22.22;54.79
8585;BME280;7180;52.742;11.420;2023-07-22T11:41:45;99900.03;;;22.47;55.82
8585;BME280;7180;52.742;11.420;2023-07-22T11:44:13;99945.22;;;22.87;55.79
8585;BME280;7180;52.742;11.420;2023-07-22T11:46:59;99817.34;;;22.29;54.91
8585;BME280;7180;52.742;11.420;2023-07-22T11:49:30;99824.06;;;22.11;55.57
8585;BME280;7180;52.742;11.420;2023-07-22T11:52:03;99811.31;;;22.13;55.06
8585;BME280;7180;52.742;11.420;2023-07-22T11:54:30;99971.59;;;22.16;57.40
8585;BME280;7180;52.742;11.420;2023-07-22T11:56:55;99966.13;;;22.32;56.63
8585;BME280;7180;52.742;11.420;2023-07-22T11:59:36;99939.41;;;22.24;56.58
8585;BME280;7180;52.742;11.420;2023-07-22T12:02:01;99852.44;;;22.34;55.20
8585;BME280;7180;52.742;11.420;2023-07-22T12:04:30;99886.56;;;22.55;55.04
8585;BME280;7180;52.742;11.420;2023-07-22T12:06:55;99901.03;;;22.69;55.00
8585;BME280;7180;52.742;11.420;2023-07-22T12:09:21;99825.50;;;22.94;53.67
8585;BME280;7180;52.742;11.420;2023-07-22T12:11:46;99894.28;;;22.58;55.57
8585;BME280;7180;52.742;11.420;2023-07-22T12:14:14;99827.19;;;22.66;54.38
8585;BME280;7180;52.742;11.420;2023-07-22T12:16:41;99780.84;;;22.28;54.29
8585;BME280;7180;52.742;11.420;2023-07-22T12:19:08;99867.47;;;22.21;55.27
8585;BME280;7180;52.742;11.420;2023-07-22T12:21:33;99865.09;;;22.03;55.81
8585;BME280;7180;52.742;11.420;2023-07-22T12:23:59;99852.69;;;21.88;55.90
8585;BME280;7180;52.742;11.420;2023-07-22T12:26:25;99908.97;;;21.72;56.82
8585;BME280;7180;52.742;11.420;2023-07-22T12:28:51;99913.69;;;21.61;56.79
8585;BME280;7180;52.742;11.420;2023-07-22T12:31:16;99958.16;;;21.32;58.08
8585;BME280;7180;52.742;11.420;2023-07-22T12:33:41;99997.28;;;21.72;57.67
8585;BME280;7180;52.742;11.420;2023-07-22T12:36:07;100060.41;;;22.27;57.76
8585;BME280;7180;52.742;11.420;2023-07-22T12:38:32;99938.28;;;22.78;55.22
8585;BME280;7180;52.742;11.420;2023-07-22T12:40:58;99960.56;;;23.22;54.62
8585;BME280;7180;52.742;11.420;2023-07-22T12:43:23;99873.25;;;23.34;53.79
8585;BME280;7180;52.742;11.420;2023-07-22T12:45:48;99738.38;;;23.89;51.23
8585;BME280;7180;52.742;11.420;2023-07-22T12:48:14;99796.88;;;23.94;52.13
8585;BME280;7180;52.742;11.420;2023-07-22T12:50:40;99817.09;;;24.11;52.19
8585;BME280;7180;52.742;11.420;2023-07-22T12:53:05;99825.91;;;24.05;52.81
8585;BME280;7180;52.742;11.420;2023-07-22T12:55:31;99764.38;;;23.61;52.83
8585;BME280;7180;52.742;11.420;2023-07-22T12:57:56;99794.72;;;23.83;52.66
8585;BME280;7180;52.742;11.420;2023-07-22T13:00:21;99840.09;;;23.99;52.97
8585;BME280;7180;52.742;11.420;2023-07-22T13:02:47;99917.81;;;24.00;54.18
8585;BME280;7180;52.742;11.420;2023-07-22T13:05:13;99783.28;;;24.23;52.09
8585;BME280;7180;52.742;11.420;2023-07-22T13:07:39;99631.00;;;24.17;50.22
8585;BME280;7180;52.742;11.420;2023-07-22T13:10:04;99635.78;;;23.59;51.72
8585;BME280;7180;52.742;11.420;2023-07-22T13:12:38;99730.84;;;23.29;52.74